Date,TemperatureHighF,TemperatureAvgF,TemperatureLowF,DewpointHighF,DewpointAvgF,DewpointLowF,HumidityHigh,HumidityAvg,HumidityLow,PressureMaxIn,PressureMinIn,WindSpeedMaxMPH,WindSpeedAvgMPH,GustSpeedMaxMPH,PrecipitationSumIn
2013-1-1,32,24,21,23,20,17,93,85,67,30.82,30.66,2,1,6,0.00
2013-1-2,38,26,10,28,22,7,93,82,61,30.80,30.63,4,0,8,0.01
2013-1-3,39,27,8,28,21,6,94,80,57,30.94,30.78,2,0,99,0.01
2013-1-4,48,33,16,31,25,14,92,73,51,30.91,30.75,2,0,9,0.00
2013-1-5,51,39,32,35,30,23,82,69,51,30.82,30.61,3,1,10,0.00
2013-1-6,54,38,27,29,25,21,79,60,36,30.92,30.79,2,0,5,0.00
2013-1-7,55,41,31,31,27,21,69,57,40,30.78,30.55,4,1,13,0.00
2013-1-8,58,43,32,39,33,28,84,68,46,30.76,30.49,3,1,11,0.00
2013-1-9,56,43,28,39,33,-8,90,70,10,30.93,30.73,4,1,11,0.00
2013-1-10,51,46,42,50,44,38,100,96,73,30.73,30.31,4,1,9,0.21
2013-1-11,60,52,39,51,45,26,100,78,34,30.43,30.10,4,2,8,0.01
2013-1-12,39,28,20,33,19,11,82,68,60,30.66,30.43,5,2,10,0.00
2013-1-13,20,19,18,11,11,10,72,69,67,30.70,30.63,3,2,8,0.00
2013-1-22,50,30,16,26,18,10,78,63,39,30.82,30.70,3,0,5,0.00
2013-1-23,63,38,21,38,26,17,87,64,39,30.88,30.66,4,1,10,0.00
2013-1-24,29,25,20,24,17,12,93,72,51,30.88,30.64,4,1,8,0.00
2013-1-25,54,38,22,31,26,18,91,66,39,30.79,30.68,2,0,5,0.00
2013-1-26,60,46,29,40,33,24,83,64,36,30.77,30.52,4,1,8,0.01
2013-1-27,69,54,43,58,51,39,100,89,66,30.56,30.28,4,2,11,0.01
2013-1-28,75,62,54,62,56,51,100,83,50,30.40,30.22,4,1,16,0.00
2013-1-29,66,44,34,61,40,31,94,85,76,30.26,30.08,4,1,12,0.01
2013-1-30,34,29,22,32,22,17,92,76,60,30.54,30.20,5,2,14,0.00
2013-1-31,33,24,16,24,15,7,86,70,51,30.98,30.50,4,1,11,0.00
2013-2-1,37,25,14,17,12,7,78,57,37,30.95,30.69,2,0,9,0.00
2013-2-2,59,43,28,39,29,16,82,58,39,30.81,30.69,4,1,10,0.00
2013-2-3,59,48,32,34,29,23,74,49,31,30.82,30.39,4,1,8,0.00
2013-2-4,59,46,31,36,32,26,80,59,41,30.54,30.36,4,1,8,0.00
2013-2-5,69,47,28,38,30,24,88,57,26,30.61,30.46,2,0,7,0.00
2013-2-6,62,51,34,56,44,28,96,78,54,30.58,30.38,4,1,9,0.00
2013-2-7,56,49,36,52,43,31,100,80,54,30.76,30.38,3,1,11,0.25
2013-2-8,49,36,28,37,31,26,100,84,62,30.87,30.67,2,1,8,0.00
2013-2-9,52,41,34,44,37,31,100,87,67,30.68,30.19,4,2,11,0.02
2013-2-10,53,45,36,47,33,26,100,65,46,30.64,30.10,7,2,20,0.06
2013-2-11,51,38,30,27,24,22,75,58,35,30.77,30.63,3,1,8,0.00
2013-2-12,43,36,30,32,27,22,94,71,52,30.70,30.55,2,0,5,0.00
2013-2-13,60,42,24,34,28,22,97,64,26,30.56,30.41,5,1,11,0.00
2013-2-14,34,33,31,27,26,25,79,76,73,30.50,30.48,0,0,2,0.00
2013-2-15,44,33,21,23,19,16,81,58,38,30.93,30.81,4,1,7,0.00
2013-2-16,50,33,17,30,21,11,79,62,41,30.89,30.55,4,1,9,0.00
2013-2-17,70,50,26,40,32,23,93,56,24,30.55,30.14,4,1,11,0.01
2013-2-18,56,48,29,44,33,19,74,57,40,30.74,30.05,6,2,16,0.15
2013-2-19,50,36,25,24,19,13,76,53,34,30.92,30.74,4,1,8,0.00
2013-2-20,32,29,24,30,23,9,95,80,42,30.85,30.57,5,1,11,0.00
2013-2-21,32,25,17,32,24,14,100,95,89,30.57,30.28,5,2,51,0.00
2013-2-22,32,21,12,21,15,9,89,77,60,30.69,30.49,3,1,7,0.01
2013-2-23,42,28,10,29,21,8,91,76,54,30.60,30.48,2,0,6,0.21
2013-2-24,50,37,23,37,29,19,89,75,58,30.49,30.35,3,1,8,0.01
2013-2-25,38,34,32,33,32,29,100,92,81,30.44,30.24,5,2,14,0.17
2013-2-26,42,33,27,33,29,27,99,87,70,30.50,30.27,3,1,11,0.17
2013-2-27,41,34,28,29,28,25,95,79,61,30.75,30.51,5,2,12,0.00
2013-2-28,39,33,28,30,27,24,86,78,69,30.81,30.73,3,1,9,0.00
2013-3-1,37,31,24,27,24,19,83,75,60,30.92,30.78,4,1,10,0.00
2013-3-2,44,32,18,28,22,15,90,69,50,30.94,30.70,2,0,4,0.00
2013-3-3,61,45,30,43,34,25,81,65,51,30.70,30.20,2,1,8,0.00
2013-3-4,55,44,36,41,37,32,92,75,57,30.66,30.15,4,2,14,0.06
2013-3-5,45,36,28,35,23,18,89,60,46,30.96,30.65,6,2,14,0.01
2013-3-6,49,36,24,28,23,18,80,62,41,30.99,30.75,2,0,7,0.00
2013-3-7,68,51,33,36,31,26,76,50,29,30.75,30.58,4,2,11,0.00
2013-3-8,62,53,45,49,42,33,79,67,56,30.67,30.48,4,2,11,0.00
2013-3-9,60,54,43,60,52,41,100,91,76,30.49,30.16,3,1,11,1.03
2013-3-10,43,33,29,42,29,22,96,84,73,30.61,30.24,5,2,15,0.01
2013-3-11,52,36,24,31,22,18,80,60,33,30.63,30.53,4,1,11,0.00
2013-3-12,56,45,34,36,30,21,78,56,39,30.94,30.62,4,1,10,0.00
2013-3-13,34,31,28,22,21,20,75,68,61,30.95,30.94,0,0,2,0.00
2013-3-14,82,57,40,52,41,28,76,57,35,30.82,30.65,4,1,10,0.00
2013-3-15,83,64,45,55,49,40,87,61,36,30.66,30.31,3,0,7,0.00
2013-3-16,60,48,37,50,39,30,83,70,58,30.56,30.32,5,2,11,0.00
2013-3-17,43,38,35,37,34,30,96,83,73,30.57,30.28,4,2,8,0.01
2013-3-18,61,46,37,38,33,24,97,66,27,30.62,30.34,4,1,8,0.01
2013-3-19,59,44,30,34,27,20,86,54,31,30.86,30.61,3,1,8,0.00
2013-3-20,53,39,31,32,24,17,92,59,31,30.98,30.59,4,1,8,0.00
2013-3-21,51,41,35,26,22,20,56,48,36,30.58,30.31,4,2,10,0.01
2013-3-22,55,40,31,38,33,30,100,80,52,30.53,30.43,4,1,9,0.00
2013-3-23,37,34,30,34,33,30,100,95,85,30.54,30.42,4,2,8,0.15
2013-3-24,37,31,24,30,25,22,100,80,57,30.75,30.51,4,1,13,0.19
2013-3-25,37,30,24,23,20,18,79,67,55,30.96,30.75,7,2,14,0.00
2013-3-26,51,35,18,30,23,15,90,64,41,30.99,30.77,3,0,6,0.00
2013-3-27,66,50,35,40,33,25,67,54,39,30.77,30.65,3,1,10,0.00
2013-3-28,71,54,36,51,42,32,86,65,46,30.75,30.64,2,0,7,0.00
2013-3-29,57,54,52,49,48,47,85,79,75,30.71,30.70,0,0,2,0.00
2013-3-30,79,60,50,61,56,50,100,86,54,30.65,30.48,4,0,10,0.38
2013-3-31,71,58,47,53,46,40,96,67,37,30.66,30.56,4,1,14,0.02
2013-4-1,51,42,37,41,35,29,88,76,65,30.89,30.57,4,2,11,0.20
2013-4-2,43,38,34,32,30,28,84,72,57,30.87,30.78,3,1,8,0.09
2013-4-3,43,39,38,35,32,27,87,74,55,30.90,30.81,3,1,10,0.00
2013-4-4,64,49,37,44,39,34,90,70,46,30.82,30.69,2,0,5,0.00
2013-4-5,66,40,36,48,38,34,96,90,54,30.75,30.53,3,0,8,0.00
2013-4-6,80,66,55,55,49,45,76,57,35,30.48,30.34,4,1,11,0.00
2013-4-7,74,60,51,63,54,43,96,81,60,30.46,30.28,3,1,8,0.06
2013-4-8,70,64,59,63,61,59,100,89,77,30.33,30.20,4,1,8,0.00
2013-4-9,79,58,33,66,52,32,96,81,61,30.56,30.19,6,2,13,0.18
2013-4-10,34,32,31,32,30,29,100,94,90,30.60,30.47,3,0,9,0.19
2013-4-11,56,40,28,36,31,26,92,73,45,30.52,30.32,4,1,10,0.02
2013-4-12,61,49,34,40,36,28,80,63,44,30.65,30.46,2,0,6,0.00
2013-4-13,75,58,39,54,45,34,86,62,45,30.66,30.23,4,2,14,0.00
2013-4-14,78,66,58,58,50,34,74,58,31,30.28,30.12,4,2,12,0.00
2013-4-15,51,49,45,34,33,31,60,53,50,30.57,30.50,4,2,11,0.00
2013-4-16,50,45,43,40,35,32,73,68,60,30.66,30.53,4,3,15,0.00
2013-4-17,47,45,42,47,44,41,100,99,96,30.58,30.28,3,1,8,0.27
2013-4-18,42,38,34,41,32,26,100,79,64,30.67,30.30,6,2,11,0.09
2013-4-19,65,47,31,38,31,25,77,57,32,30.70,30.59,7,2,12,0.00
2013-4-20,65,52,38,43,37,31,77,59,40,30.72,30.59,4,1,8,0.00
2013-4-21,72,63,53,48,46,40,66,53,41,30.76,30.66,4,2,11,0.00
2013-4-22,71,58,40,57,48,39,97,70,56,30.69,30.44,4,2,13,0.34
2013-4-23,36,34,32,32,31,28,96,87,73,30.86,30.65,5,2,13,0.53
2013-4-24,63,46,27,38,33,25,95,64,34,30.89,30.80,4,1,8,0.01
2013-4-28,81,72,67,59,56,53,63,59,44,30.42,30.40,2,1,7,0.00
2013-4-29,90,75,59,66,60,53,94,61,39,30.40,30.23,3,1,9,0.00
2013-4-30,87,75,64,65,59,54,79,59,42,30.38,30.27,5,2,12,0.00
2013-5-1,80,60,38,66,52,36,95,76,58,30.88,30.37,5,2,14,0.24
2013-5-2,51,41,35,38,34,30,100,78,45,31.06,30.82,5,2,11,0.93
2013-5-3,62,49,36,38,33,30,82,56,33,30.96,30.59,6,1,11,0.00
2013-5-4,45,44,42,36,32,30,81,63,58,30.59,30.52,4,2,9,0.01
2013-5-5,63,49,43,52,46,41,100,88,65,30.77,30.68,3,1,7,0.01
2013-5-6,72,56,43,56,50,43,100,82,54,30.75,30.63,2,0,5,0.00
2013-5-7,75,63,49,60,54,48,100,74,51,30.70,30.54,3,0,7,0.00
2013-5-8,82,67,58,66,60,52,100,78,56,30.62,30.38,4,1,11,0.78
2013-5-9,80,67,57,63,58,55,96,74,50,30.61,30.42,4,0,11,0.17
2013-5-10,75,63,54,57,54,50,94,74,48,30.71,30.60,3,1,8,0.00
2013-5-11,73,60,47,55,46,37,96,62,33,30.87,30.70,4,1,11,0.00
2013-5-12,73,58,42,50,43,38,87,61,38,30.89,30.69,2,1,11,0.00
2013-5-13,89,70,50,62,54,44,83,59,37,30.72,30.55,2,0,6,0.00
2013-5-14,94,79,65,63,56,49,61,47,28,30.56,30.43,3,1,13,0.00
2013-5-15,73,72,70,59,59,58,66,63,60,30.49,30.48,2,1,9,0.00
2013-5-22,78,69,62,57,57,56,81,65,48,30.59,30.48,1,0,4,0.00
2013-5-23,77,65,56,60,56,51,85,72,55,30.79,30.59,2,1,7,0.00
2013-5-24,80,69,57,68,62,54,91,79,66,30.83,30.68,2,1,8,0.00
2013-5-25,86,75,67,70,67,64,94,76,58,30.75,30.58,4,1,8,0.00
2013-5-26,85,75,68,72,69,64,90,82,66,30.63,30.46,3,1,8,0.00
2013-5-27,82,76,73,72,70,68,90,81,71,30.46,30.26,4,2,9,0.00
2013-5-28,86,77,72,75,70,67,89,80,65,30.40,30.26,3,1,11,0.00
2013-5-29,83,73,63,71,67,60,96,81,66,30.37,30.20,4,2,11,0.20
2013-5-30,86,69,59,68,63,59,100,82,49,30.40,30.15,4,1,10,1.55
2013-5-31,89,76,67,73,68,62,100,78,45,30.39,30.26,3,0,7,0.00
2013-6-1,78,68,60,64,55,50,86,64,52,30.70,30.36,2,1,10,0.00
2013-6-2,79,64,52,54,51,48,84,65,40,30.78,30.64,2,0,6,0.00
2013-6-3,84,69,53,64,58,51,93,70,44,30.66,30.39,4,1,10,0.00
2013-6-4,89,76,68,71,67,63,90,74,53,30.56,30.38,3,1,10,0.00
2013-6-5,79,71,65,68,66,62,100,84,66,30.61,30.48,2,1,8,0.81
2013-6-9,93,76,60,65,62,57,100,66,36,30.54,30.37,2,0,7,0.01
2013-6-10,102,83,64,75,68,60,90,63,38,30.44,30.32,3,0,6,0.00
2013-6-11,100,87,75,72,66,60,75,52,29,30.44,30.32,4,1,11,0.00
2013-6-12,107,89,76,75,72,66,80,60,34,30.53,30.35,4,1,10,0.00
2013-6-13,93,79,66,72,65,57,79,64,49,30.63,30.49,3,1,7,0.00
2013-6-14,103,86,71,76,71,66,88,64,32,30.52,30.38,2,1,14,0.00
2013-6-15,94,82,74,72,69,67,90,67,48,30.62,30.46,2,0,10,0.00
2013-6-16,79,79,79,70,70,70,74,74,74,30.63,30.63,0,0,2,0.07